Owens X Roads, Alabama
Current Conditions -  °F | °C
As of 6:53 PM on Wednesday 22 Oct 2014 (Local Time) from KHSV Reporting Station
Clear Clear  
Wind Chill: 60°   Ceiling: Unl
Heat Index: 60°   Visibility: 10mi
Dew Point: 41°   Wind: 6mph
Humidity: 49%   Direction: 10°N
Pressure: 30.15"   Gusts: NA
Location:  34.611°N, 86.4644°W
Report Text: KHSV 222353Z 01005KT 10SM CLR 16/05 A3015 RMK AO2 SLP208 T01560050 10211 20156 53005
Loading
Personal Weather Stations






























Interactive Weather Map
Tropical Storm Tracking
New forecast layout! Learn more

10-Day Weather Forecast

Advertisements
Track Severe Weather on mobile